ASN logo
Last updated: 23 October 2020
Statuts:
Date:mercredi 14 juin 2017
Heure:ca 14:05
Type/Sous-type:Silhouette image of generic BE20 model; specific model in this crash may look slightly different
Beechcraft 200 Super King Air
Compagnie:Malian Aéro Company
Immatriculation: TZ-DDG
Numéro de série: BB-589
Année de Fabrication: 1979
Equipage:victimes: 0 / à bord: 1
Passagers:victimes: 0 / à bord: 0
Total:victimes: 0 / à bord: 1
Dégats de l'appareil: Substantiels
Conséquences: Written off (damaged beyond repair)
Lieu de l'accident:Bamako Airport (BKO) (   Mali)
Phase de vol: A l'atterrissage (LDG)
Nature:Travaux Agricoles
Aéroport de départ:Bamako Airport (BKO/GABS), Mali
Aéroport de destination:Bamako Airport (BKO/GABS), Mali
Détails:
The Beech 200 Super King Air suffered a landing accident at Bamako Airport in Mali, after returning from a cloud-seeding operation over Mopti, Mali.
The aircraft came to rest at the right hand edge of the runway. The propellers sustained substantial damage.


METAR Weather report:
13:30 UTC / 13:30 local time:
GABS 141330Z 24010KT 9999 FEW030 36/23 Q1012 NOSIG

14:00 UTC / 14:00 local time:
GABS 141400Z 240/8KT 9999 FEW030 36/23 Q1011 NOSIG

14:30 UTC / 14:30 local time:
GABS 141430Z 24010KT 9999 FEW030 37/23 Q1011 NOSIG


Photos

photo of Beechcraft-200-Super-King-Air-TZ-DDG
accident date: 14-06-2017
type: Beechcraft 200 Super King Air
registration: TZ-DDG
photo of Beechcraft-200-Super-King-Air-TZ-DDG
accident date: 14-06-2017
type: Beechcraft 200 Super King Air
registration: TZ-DDG
photo of Beechcraft-200-Super-King-Air-TZ-DDG
accident date: 14-06-2017
type: Beechcraft 200 Super King Air
registration: TZ-DDG
 

Plan

Les informations ci-dessus ne représentent pas l'opinion de la 'Flight Safety Foundation' ou de 'Aviation Safety Network' sur les causes de l'accident. Ces informations prélimimaires sont basées sur les faits tel qu'ils sont connus à ce jour.
languages: languages

Share